Time;durP1;ratioP1;P1;durP2;ratioP2;P2;SDS_P1;SDS_P2;PMS_P1;PMS_P2;Temp;Humidity;BMP_temperature;BMP_pressure;BME280_temperature;BME280_humidity;BME280_pressure;Samples;Min_cycle;Max_cycle;Signal;HPM_P1;HPM_P2
2023/03/12 00:00:19;;;;;;;0.20;0.20;;;3.00;78.60;;;;;;4975455;28;20202;-74
2023/03/12 00:02:44;;;;;;;0.10;0.10;;;3.00;78.50;;;;;;4975756;28;20194;-74
2023/03/12 00:05:10;;;;;;;0.20;0.20;;;2.90;78.40;;;;;;4976943;28;20714;-74
2023/03/12 00:07:37;;;;;;;0.30;0.30;;;2.90;78.60;;;;;;4981904;28;20264;-75
2023/03/12 00:10:06;;;;;;;0.17;0.17;;;2.90;78.60;;;;;;4961466;28;20225;-75
2023/03/12 00:12:32;;;;;;;0.13;0.13;;;2.90;78.30;;;;;;4973919;28;20255;-75
2023/03/12 00:14:58;;;;;;;1.80;0.20;;;2.80;78.50;;;;;;4976467;28;20595;-75
2023/03/12 00:17:24;;;;;;;0.10;0.10;;;2.90;78.60;;;;;;4973717;28;20182;-75
2023/03/12 00:19:52;;;;;;;0.40;0.40;;;2.90;78.50;;;;;;4977273;28;20182;-75
2023/03/12 00:22:21;;;;;;;0.20;0.20;;;2.90;78.70;;;;;;4956101;28;20182;-74
2023/03/12 00:24:53;;;;;;;0.30;0.30;;;2.90;78.70;;;;;;4976548;28;20194;-75
2023/03/12 00:27:19;;;;;;;0.23;0.23;;;2.90;78.70;;;;;;4972447;28;20210;-74
2023/03/12 00:29:44;;;;;;;0.37;0.37;;;2.90;78.80;;;;;;4977540;28;20264;-74
2023/03/12 00:32:10;;;;;;;0.30;0.30;;;2.80;78.80;;;;;;4973401;28;20197;-75
2023/03/12 00:34:36;;;;;;;0.57;0.57;;;2.80;78.60;;;;;;4976925;28;20682;-74
2023/03/12 00:37:01;;;;;;;0.27;0.27;;;2.80;78.50;;;;;;4977404;28;20199;-74
2023/03/12 00:39:27;;;;;;;0.20;0.20;;;2.80;78.40;;;;;;4977748;28;20725;-74
2023/03/12 00:41:53;;;;;;;0.20;0.20;;;2.80;78.60;;;;;;4976131;28;20733;-75
2023/03/12 00:44:18;;;;;;;0.20;0.20;;;2.80;78.50;;;;;;4976155;28;20193;-75
2023/03/12 00:46:44;;;;;;;0.33;0.33;;;2.70;78.50;;;;;;4972059;28;20189;-74
2023/03/12 00:49:10;;;;;;;0.50;0.40;;;2.70;78.60;;;;;;4972953;28;20188;-74
2023/03/12 00:51:37;;;;;;;0.10;0.10;;;2.70;78.60;;;;;;4976867;28;20197;-75
2023/03/12 00:54:03;;;;;;;0.40;0.40;;;2.70;78.60;;;;;;4977045;28;20186;-76
2023/03/12 00:56:29;;;;;;;0.40;0.40;;;2.70;78.80;;;;;;4978250;28;20576;-74
2023/03/12 00:58:55;;;;;;;0.27;0.20;;;2.70;78.80;;;;;;4958314;28;20186;-75
2023/03/12 01:01:20;;;;;;;0.50;0.50;;;2.70;78.70;;;;;;4975690;28;20225;-74
2023/03/12 01:03:46;;;;;;;0.97;0.27;;;2.70;78.70;;;;;;4976721;28;20551;-74
2023/03/12 01:06:12;;;;;;;3.30;0.70;;;2.70;78.80;;;;;;4968783;28;20206;-75
2023/03/12 01:08:38;;;;;;;0.50;0.50;;;2.60;79.00;;;;;;4976075;28;20282;-75
2023/03/12 01:11:04;;;;;;;0.40;0.40;;;2.60;79.30;;;;;;4972471;28;20676;-75
2023/03/12 01:13:30;;;;;;;0.30;0.30;;;2.60;79.00;;;;;;4976739;28;20822;-75
2023/03/12 01:15:55;;;;;;;0.40;0.40;;;2.60;79.30;;;;;;4976970;28;20392;-74
2023/03/12 01:18:21;;;;;;;0.93;0.70;;;2.50;79.30;;;;;;4977400;28;20674;-74
2023/03/12 01:20:47;;;;;;;0.30;0.30;;;2.50;79.40;;;;;;4971009;28;20304;-75
2023/03/12 01:23:13;;;;;;;0.40;0.30;;;2.50;79.40;;;;;;4974470;28;20347;-75
2023/03/12 01:25:40;;;;;;;0.20;0.20;;;2.40;79.60;;;;;;4980090;28;20174;-74
2023/03/12 01:28:05;;;;;;;0.53;0.30;;;2.40;79.60;;;;;;4977652;28;20190;-75
2023/03/12 01:30:31;;;;;;;0.30;0.30;;;2.40;79.60;;;;;;4975290;28;20205;-75
2023/03/12 01:32:57;;;;;;;0.27;0.27;;;2.30;79.80;;;;;;4976312;28;20178;-74
2023/03/12 01:35:24;;;;;;;0.23;0.23;;;2.30;80.00;;;;;;4979877;28;20706;-74
2023/03/12 01:37:49;;;;;;;0.83;0.40;;;2.30;80.10;;;;;;4975213;28;20214;-75
2023/03/12 01:40:19;;;;;;;0.33;0.33;;;2.30;80.20;;;;;;4977735;28;20293;-75
2023/03/12 01:42:55;;;;;;;0.50;0.50;;;2.30;80.10;;;;;;4975782;28;21014;-77
2023/03/12 01:45:49;;;;;;;0.20;0.20;;;2.30;80.10;;;;;;4980779;28;20206;-74
2023/03/12 01:48:18;;;;;;;0.40;0.30;;;2.30;80.10;;;;;;4973587;28;20190;-75
2023/03/12 01:50:44;;;;;;;0.30;0.30;;;2.30;79.90;;;;;;4977654;28;20269;-75
2023/03/12 01:53:11;;;;;;;1.73;0.23;;;2.30;80.10;;;;;;4981480;28;20285;-74
2023/03/12 01:55:37;;;;;;;0.47;0.27;;;2.30;80.40;;;;;;4977240;28;20253;-75
2023/03/12 01:58:04;;;;;;;0.17;0.17;;;2.30;80.30;;;;;;4977955;28;20675;-74
2023/03/12 02:00:30;;;;;;;0.20;0.20;;;2.30;80.30;;;;;;4977201;28;20217;-75
2023/03/12 02:03:00;;;;;;;0.33;0.33;;;2.30;80.20;;;;;;4978901;28;20190;-75
2023/03/12 02:05:26;;;;;;;0.27;0.27;;;2.30;79.90;;;;;;4979159;28;20659;-74
2023/03/12 02:07:52;;;;;;;0.50;0.50;;;2.20;79.80;;;;;;4978376;28;20324;-74
2023/03/12 02:10:18;;;;;;;2.20;0.53;;;2.20;80.10;;;;;;4963153;28;20280;-75
2023/03/12 02:12:43;;;;;;;0.50;0.50;;;2.20;80.30;;;;;;4981241;28;20190;-75
2023/03/12 02:15:10;;;;;;;0.20;0.20;;;2.20;80.30;;;;;;4981531;28;20281;-74
2023/03/12 02:17:39;;;;;;;0.20;0.20;;;2.20;80.40;;;;;;4979137;28;20257;-75
2023/03/12 02:20:29;;;;;;;0.83;0.40;;;2.20;80.20;;;;;;4979611;28;20824;-75
2023/03/12 02:23:17;;;;;;;0.33;0.33;;;2.20;80.10;;;;;;4977065;28;20306;-75
2023/03/12 02:25:48;;;;;;;0.30;0.30;;;2.30;79.90;;;;;;4977067;28;20182;-74
2023/03/12 02:28:17;;;;;;;0.23;0.23;;;2.30;79.90;;;;;;4977966;28;20245;-74
2023/03/12 02:30:47;;;;;;;0.30;0.30;;;2.20;79.80;;;;;;4960237;28;20201;-75
2023/03/12 02:33:14;;;;;;;0.37;0.23;;;2.20;79.80;;;;;;4977315;28;20559;-75
2023/03/12 02:35:41;;;;;;;0.33;0.30;;;2.20;79.80;;;;;;4980246;28;20210;-75
2023/03/12 02:38:45;;;;;;;0.57;0.43;;;2.20;80.30;;;;;;4976639;28;20246;-75
2023/03/12 02:41:19;;;;;;;0.20;0.20;;;2.20;80.10;;;;;;4977072;28;20600;-75
2023/03/12 02:43:48;;;;;;;0.30;0.20;;;2.20;80.30;;;;;;4976882;28;20182;-74
2023/03/12 02:46:14;;;;;;;0.20;0.20;;;2.20;80.30;;;;;;4979920;28;20194;-73
2023/03/12 02:48:40;;;;;;;0.20;0.20;;;2.20;80.40;;;;;;4978650;28;20803;-75
2023/03/12 02:51:06;;;;;;;0.20;0.20;;;2.20;80.50;;;;;;4976031;28;20301;-74
2023/03/12 02:53:32;;;;;;;0.30;0.30;;;2.10;80.40;;;;;;4977200;28;20216;-74
2023/03/12 02:55:57;;;;;;;0.30;0.27;;;2.10;80.70;;;;;;4979146;28;20213;-74
2023/03/12 02:58:23;;;;;;;0.10;0.10;;;2.10;80.80;;;;;;4975998;28;20186;-74
2023/03/12 03:00:49;;;;;;;0.33;0.33;;;2.10;81.00;;;;;;4977500;28;20206;-74
2023/03/12 03:03:15;;;;;;;0.30;0.30;;;2.10;81.00;;;;;;4977895;28;20575;-75
2023/03/12 03:05:40;;;;;;;0.33;0.33;;;2.10;81.20;;;;;;4981143;28;20178;-75
2023/03/12 03:08:07;;;;;;;0.30;0.30;;;2.10;81.30;;;;;;4980911;28;20222;-74
2023/03/12 03:10:32;;;;;;;0.20;0.20;;;2.10;81.40;;;;;;4974199;28;20217;-75
2023/03/12 03:12:58;;;;;;;0.17;0.17;;;2.10;81.20;;;;;;4977754;28;20702;-74
2023/03/12 03:15:24;;;;;;;0.23;0.23;;;2.10;81.10;;;;;;4976726;28;20183;-74
2023/03/12 03:17:49;;;;;;;0.30;0.30;;;2.10;81.20;;;;;;4979268;28;20284;-74
2023/03/12 03:20:15;;;;;;;0.23;0.23;;;2.00;81.10;;;;;;4956015;28;20558;-74
2023/03/12 03:22:41;;;;;;;0.27;0.27;;;2.00;81.20;;;;;;4977037;28;21376;-75
2023/03/12 03:25:08;;;;;;;0.20;0.20;;;1.90;80.90;;;;;;4963430;28;20194;-74
2023/03/12 03:27:34;;;;;;;0.10;0.10;;;1.90;80.80;;;;;;4976412;28;20194;-74
2023/03/12 03:30:00;;;;;;;0.20;0.20;;;1.90;80.70;;;;;;4974253;28;20233;-74
2023/03/12 03:32:26;;;;;;;0.27;0.27;;;1.90;80.40;;;;;;4980908;28;20201;-74
2023/03/12 03:34:51;;;;;;;0.20;0.20;;;1.90;80.00;;;;;;4977871;28;20174;-74
2023/03/12 03:37:17;;;;;;;0.30;0.30;;;1.90;79.90;;;;;;4976285;28;20194;-74
2023/03/12 03:39:43;;;;;;;0.20;0.20;;;1.90;79.70;;;;;;4978333;28;20190;-74
2023/03/12 03:42:08;;;;;;;0.20;0.20;;;1.90;79.80;;;;;;4977858;28;20236;-74
2023/03/12 03:44:34;;;;;;;0.17;0.17;;;1.80;79.70;;;;;;4957609;28;20190;-76
2023/03/12 03:46:59;;;;;;;0.20;0.20;;;1.80;79.70;;;;;;4973338;28;20701;-75
2023/03/12 03:49:25;;;;;;;0.20;0.20;;;1.80;79.90;;;;;;4981711;28;20578;-75
2023/03/12 03:51:51;;;;;;;0.27;0.20;;;1.80;79.70;;;;;;4979082;28;21364;-74
2023/03/12 03:54:17;;;;;;;0.33;0.33;;;1.80;79.80;;;;;;4976355;28;20186;-75
2023/03/12 03:56:44;;;;;;;0.10;0.10;;;1.80;79.90;;;;;;4976014;28;20672;-75
2023/03/12 03:59:10;;;;;;;0.20;0.20;;;1.80;79.70;;;;;;4977862;28;20190;-74
2023/03/12 04:01:36;;;;;;;0.20;0.20;;;1.80;79.60;;;;;;4975770;28;20222;-74
2023/03/12 04:04:03;;;;;;;0.17;0.17;;;1.70;79.40;;;;;;4975431;28;20185;-75
2023/03/12 04:06:28;;;;;;;0.30;0.30;;;1.70;79.00;;;;;;4977698;28;20186;-74
2023/03/12 04:08:56;;;;;;;0.47;0.37;;;1.70;79.30;;;;;;4974289;28;20197;-75
2023/03/12 04:11:22;;;;;;;0.30;0.30;;;1.70;79.30;;;;;;4975550;28;20280;-75
2023/03/12 04:13:48;;;;;;;0.40;0.40;;;1.70;78.90;;;;;;4974944;28;20197;-75
2023/03/12 04:16:14;;;;;;;0.13;0.13;;;1.70;78.90;;;;;;4974424;28;20206;-74
2023/03/12 04:18:40;;;;;;;0.20;0.20;;;1.60;78.30;;;;;;4972535;28;20284;-75
2023/03/12 04:21:13;;;;;;;0.30;0.20;;;1.60;78.20;;;;;;4973568;28;20214;-75
2023/03/12 04:23:39;;;;;;;0.20;0.20;;;1.60;77.60;;;;;;4976713;28;20182;-74
2023/03/12 04:26:06;;;;;;;0.30;0.30;;;1.60;77.50;;;;;;4976703;28;20568;-75
2023/03/12 04:28:32;;;;;;;0.10;0.10;;;1.50;77.40;;;;;;4975254;28;20253;-74
2023/03/12 04:31:04;;;;;;;0.13;0.13;;;1.50;77.20;;;;;;4973880;28;20189;-75
2023/03/12 04:33:32;;;;;;;0.10;0.10;;;1.50;77.10;;;;;;4974955;28;20182;-75
2023/03/12 04:35:58;;;;;;;0.10;0.10;;;1.50;76.90;;;;;;4973785;28;20186;-75
2023/03/12 04:38:25;;;;;;;0.20;0.20;;;1.50;77.10;;;;;;4975400;28;20189;-75
2023/03/12 04:41:11;;;;;;;0.10;0.10;;;1.50;77.20;;;;;;4976871;28;20913;-74
2023/03/12 04:43:36;;;;;;;0.30;0.30;;;1.40;77.30;;;;;;4975500;28;20186;-75
2023/03/12 04:46:02;;;;;;;0.60;0.20;;;1.40;77.20;;;;;;4976696;28;20193;-75
2023/03/12 04:48:28;;;;;;;0.17;0.17;;;1.40;77.40;;;;;;4978430;28;20216;-74
2023/03/12 04:50:54;;;;;;;0.10;0.10;;;1.40;77.50;;;;;;4972540;28;20581;-74
2023/03/12 04:53:20;;;;;;;0.27;0.27;;;1.30;77.40;;;;;;4977192;28;20184;-74
2023/03/12 04:55:46;;;;;;;0.10;0.10;;;1.30;77.70;;;;;;4974068;28;20182;-74
2023/03/12 04:58:14;;;;;;;0.10;0.10;;;1.30;77.60;;;;;;4974120;28;20186;-74
2023/03/12 05:00:41;;;;;;;0.10;0.10;;;1.30;77.70;;;;;;4977790;28;20209;-74
2023/03/12 05:03:06;;;;;;;0.20;0.20;;;1.30;77.80;;;;;;4974092;28;20667;-75
2023/03/12 05:05:32;;;;;;;0.20;0.20;;;1.30;77.80;;;;;;4974047;28;20192;-75
2023/03/12 05:07:58;;;;;;;0.17;0.17;;;1.30;77.80;;;;;;4975942;28;20218;-75
2023/03/12 05:10:24;;;;;;;0.17;0.17;;;1.30;77.80;;;;;;4980922;28;20200;-75
2023/03/12 05:12:50;;;;;;;0.30;0.30;;;1.30;77.90;;;;;;4978451;28;20185;-75
2023/03/12 05:15:16;;;;;;;0.30;0.30;;;1.30;78.00;;;;;;4979239;28;20187;-75
2023/03/12 05:17:43;;;;;;;0.20;0.20;;;1.30;78.00;;;;;;4977810;28;20178;-75
2023/03/12 05:20:10;;;;;;;0.20;0.20;;;1.30;78.10;;;;;;4982233;28;20572;-75
2023/03/12 05:22:35;;;;;;;0.37;0.37;;;1.30;78.10;;;;;;4977544;28;20178;-75
2023/03/12 05:25:02;;;;;;;0.20;0.20;;;1.30;78.10;;;;;;4978827;28;20182;-74
2023/03/12 05:27:27;;;;;;;0.20;0.20;;;1.30;78.20;;;;;;4976900;28;20185;-74
2023/03/12 05:29:53;;;;;;;0.10;0.10;;;1.30;77.90;;;;;;4979771;28;20188;-76
2023/03/12 05:32:19;;;;;;;5.23;0.33;;;1.30;77.70;;;;;;4963428;28;20190;-76
2023/03/12 05:34:45;;;;;;;0.13;0.13;;;1.40;77.60;;;;;;4983188;28;20173;-74
2023/03/12 05:37:10;;;;;;;0.10;0.10;;;1.40;77.70;;;;;;4981981;28;20190;-74
2023/03/12 05:39:36;;;;;;;0.20;0.20;;;1.40;77.70;;;;;;4981807;28;20231;-73
2023/03/12 05:42:03;;;;;;;0.20;0.20;;;1.40;77.50;;;;;;4967801;28;20225;-71
2023/03/12 05:44:29;;;;;;;0.20;0.20;;;1.50;77.50;;;;;;4976971;28;20181;-70
2023/03/12 05:46:54;;;;;;;0.20;0.20;;;1.50;77.60;;;;;;4978785;28;20952;-71
2023/03/12 05:49:20;;;;;;;0.10;0.10;;;1.50;77.90;;;;;;4957844;28;20192;-72
2023/03/12 05:51:47;;;;;;;0.20;0.20;;;1.60;77.90;;;;;;4981243;28;20240;-72
2023/03/12 05:54:14;;;;;;;1.00;0.20;;;1.60;77.40;;;;;;4981457;28;20191;-71
2023/03/12 05:56:39;;;;;;;0.63;0.40;;;1.60;77.90;;;;;;4980045;28;20178;-72
2023/03/12 05:59:05;;;;;;;0.10;0.10;;;1.60;77.90;;;;;;4977509;28;20675;-72
2023/03/12 06:01:31;;;;;;;0.03;0.03;;;1.70;77.70;;;;;;4980345;28;20707;-71
2023/03/12 06:03:58;;;;;;;0.10;0.10;;;1.70;77.10;;;;;;4973697;28;20265;-72
2023/03/12 06:06:24;;;;;;;0.10;0.10;;;1.80;76.70;;;;;;4979397;28;20174;-71
2023/03/12 06:08:51;;;;;;;0.20;0.20;;;1.90;75.80;;;;;;4974843;28;20179;-71
2023/03/12 06:11:17;;;;;;;0.10;0.10;;;1.90;75.70;;;;;;4959688;28;20185;-71
2023/03/12 06:13:42;;;;;;;0.10;0.10;;;2.00;75.30;;;;;;4976943;28;20182;-73
2023/03/12 06:16:13;;;;;;;0.17;0.17;;;2.00;74.90;;;;;;4977784;28;20247;-73
2023/03/12 06:18:39;;;;;;;0.33;0.33;;;2.00;74.30;;;;;;4979419;28;20200;-72
2023/03/12 06:21:12;;;;;;;0.33;0.33;;;2.10;74.40;;;;;;4972146;28;20206;-74
2023/03/12 06:23:38;;;;;;;0.13;0.13;;;2.10;74.30;;;;;;4959874;28;20562;-70
2023/03/12 06:26:05;;;;;;;0.10;0.10;;;2.10;75.00;;;;;;4979849;28;20186;-72
2023/03/12 06:28:30;;;;;;;0.20;0.20;;;2.20;75.20;;;;;;4980296;28;20185;-73
2023/03/12 06:30:56;;;;;;;0.10;0.10;;;2.20;75.40;;;;;;4981549;28;20178;-71
2023/03/12 06:33:22;;;;;;;0.20;0.20;;;2.20;75.20;;;;;;4978891;28;20308;-72
2023/03/12 06:35:47;;;;;;;0.20;0.20;;;2.30;75.10;;;;;;4976118;28;20201;-72
2023/03/12 06:38:13;;;;;;;1.30;0.20;;;2.30;74.90;;;;;;4974028;28;20179;-75
2023/03/12 06:40:39;;;;;;;0.20;0.20;;;2.30;75.00;;;;;;4974552;28;20244;-75
2023/03/12 06:43:10;;;;;;;0.20;0.20;;;;;;;;;;4979063;28;20316;-75
2023/03/12 06:45:36;;;;;;;0.63;0.20;;;2.40;76.30;;;;;;4959755;28;20208;-75
2023/03/12 06:48:02;;;;;;;0.10;0.10;;;2.40;76.80;;;;;;4974826;28;20194;-75
2023/03/12 06:50:28;;;;;;;0.17;0.17;;;2.50;75.80;;;;;;4973076;28;20280;-75
2023/03/12 06:52:54;;;;;;;0.13;0.13;;;2.60;75.50;;;;;;4977207;28;20995;-75
2023/03/12 06:55:19;;;;;;;0.30;0.30;;;2.60;75.00;;;;;;4977251;28;20284;-75
2023/03/12 06:57:45;;;;;;;0.23;0.20;;;2.60;74.60;;;;;;4977013;28;20182;-75
2023/03/12 07:00:11;;;;;;;0.10;0.10;;;2.60;74.20;;;;;;4979629;28;20196;-74
2023/03/12 07:02:37;;;;;;;0.23;0.23;;;2.50;73.70;;;;;;4981508;28;20182;-75
2023/03/12 07:05:03;;;;;;;0.30;0.30;;;2.50;73.60;;;;;;4976543;28;20190;-75
2023/03/12 07:07:28;;;;;;;0.23;0.23;;;2.50;73.40;;;;;;4978726;28;20924;-75
2023/03/12 07:09:54;;;;;;;3.03;0.30;;;2.50;73.20;;;;;;4976655;28;20541;-75
2023/03/12 07:12:20;;;;;;;0.20;0.20;;;2.50;72.80;;;;;;4975266;28;20187;-74
2023/03/12 07:14:45;;;;;;;0.20;0.20;;;2.50;72.10;;;;;;4979059;28;20189;-76
2023/03/12 07:17:11;;;;;;;0.20;0.20;;;2.50;72.70;;;;;;4975919;28;20174;-77
2023/03/12 07:19:36;;;;;;;0.20;0.20;;;2.60;71.90;;;;;;4975441;28;20190;-75
2023/03/12 07:22:02;;;;;;;0.30;0.30;;;2.70;72.10;;;;;;4976107;28;20271;-78
2023/03/12 07:24:28;;;;;;;0.10;0.10;;;2.70;71.60;;;;;;4977324;28;20698;-76
2023/03/12 07:26:53;;;;;;;0.10;0.10;;;2.80;71.60;;;;;;4978902;28;20277;-76
2023/03/12 07:29:19;;;;;;;0.13;0.13;;;2.90;71.70;;;;;;4981564;28;20197;-75
2023/03/12 07:31:45;;;;;;;0.30;0.30;;;3.00;71.30;;;;;;4971854;28;20183;-78
2023/03/12 07:34:11;;;;;;;0.17;0.17;;;3.00;71.30;;;;;;4961594;28;20185;-75
2023/03/12 07:36:36;;;;;;;0.20;0.20;;;3.10;71.50;;;;;;4975175;28;20178;-77
2023/03/12 07:39:03;;;;;;;0.60;0.27;;;3.20;71.20;;;;;;4978145;28;20198;-76
2023/03/12 07:41:29;;;;;;;0.10;0.10;;;3.30;70.50;;;;;;4978707;28;20216;-77
2023/03/12 07:43:54;;;;;;;0.23;0.23;;;3.40;70.20;;;;;;4977486;28;20194;-76
2023/03/12 07:46:20;;;;;;;0.20;0.20;;;3.50;70.10;;;;;;4975226;28;20252;-76
2023/03/12 07:48:46;;;;;;;0.20;0.20;;;3.60;69.60;;;;;;4976505;28;20181;-75
2023/03/12 07:51:11;;;;;;;0.30;0.13;;;3.80;69.50;;;;;;4976517;28;20581;-74
2023/03/12 07:53:37;;;;;;;0.20;0.20;;;3.90;69.20;;;;;;4975517;28;20194;-78
2023/03/12 07:56:03;;;;;;;0.30;0.30;;;4.00;68.80;;;;;;4975300;28;20190;-78
2023/03/12 07:58:29;;;;;;;0.20;0.20;;;4.00;68.20;;;;;;4976624;28;20631;-77
2023/03/12 08:00:55;;;;;;;0.30;0.30;;;4.10;67.90;;;;;;4971576;28;20222;-77
2023/03/12 08:03:21;;;;;;;0.20;0.20;;;4.70;66.90;;;;;;4977740;28;20186;-77
2023/03/12 08:05:58;;;;;;;0.30;0.20;;;4.70;66.90;;;;;;4959020;28;20683;-79
2023/03/12 08:08:25;;;;;;;0.37;0.37;;;5.10;65.90;;;;;;4978060;28;20201;-77
2023/03/12 08:10:51;;;;;;;0.30;0.30;;;5.50;65.30;;;;;;4974471;28;20655;-75
2023/03/12 08:13:17;;;;;;;0.40;0.40;;;5.90;64.00;;;;;;4970885;28;20186;-78
2023/03/12 08:15:43;;;;;;;0.30;0.30;;;6.20;62.40;;;;;;4973461;28;20620;-76
2023/03/12 08:18:09;;;;;;;0.10;0.10;;;6.60;61.50;;;;;;4977635;28;20213;-77
2023/03/12 08:20:35;;;;;;;0.20;0.20;;;6.90;61.30;;;;;;4973809;28;20297;-76
2023/03/12 08:23:00;;;;;;;0.20;0.20;;;7.30;61.40;;;;;;4978631;28;20205;-77
2023/03/12 08:25:27;;;;;;;0.30;0.30;;;7.70;61.00;;;;;;4962089;28;20312;-76
2023/03/12 08:27:53;;;;;;;0.30;0.30;;;8.30;60.50;;;;;;4979344;28;20185;-77
2023/03/12 08:30:19;;;;;;;0.23;0.23;;;8.80;59.20;;;;;;4976570;28;20857;-76
2023/03/12 08:32:45;;;;;;;0.40;0.40;;;;;;;;;;4977240;28;20179;-79
2023/03/12 08:35:11;;;;;;;0.40;0.40;;;10.00;57.50;;;;;;4976901;28;20191;-74
2023/03/12 08:37:36;;;;;;;0.57;0.57;;;10.30;54.70;;;;;;4976296;28;20196;-73
2023/03/12 08:40:11;;;;;;;0.30;0.30;;;10.50;55.50;;;;;;4975725;28;20576;-74
2023/03/12 08:42:38;;;;;;;0.30;0.30;;;10.70;53.50;;;;;;4976685;28;20640;-74
2023/03/12 08:45:04;;;;;;;0.33;0.33;;;10.80;52.50;;;;;;4959612;28;20857;-75
2023/03/12 08:47:30;;;;;;;0.40;0.40;;;10.90;53.30;;;;;;4974227;28;20177;-73
2023/03/12 08:49:55;;;;;;;0.47;0.47;;;11.00;52.40;;;;;;4970373;28;20182;-73
2023/03/12 08:52:21;;;;;;;0.32;0.25;;;11.30;52.00;;;;;;4975875;28;20186;-74
2023/03/12 08:54:47;;;;;;;0.38;0.38;;;11.30;52.10;;;;;;4973617;28;20217;-74
2023/03/12 08:57:12;;;;;;;0.32;0.32;;;11.30;51.60;;;;;;4978325;28;20182;-74
2023/03/12 08:59:38;;;;;;;0.30;0.30;;;11.30;51.20;;;;;;4977264;28;20181;-73
2023/03/12 09:02:04;;;;;;;2.90;0.43;;;11.40;51.60;;;;;;4973963;28;20210;-74
2023/03/12 09:04:29;;;;;;;0.32;0.32;;;11.20;51.20;;;;;;4975609;28;20574;-74
2023/03/12 09:06:55;;;;;;;0.30;0.30;;;11.10;52.10;;;;;;4974864;28;20260;-73
2023/03/12 09:09:21;;;;;;;1.85;0.38;;;11.30;51.80;;;;;;4974097;28;20196;-74
2023/03/12 09:11:46;;;;;;;0.30;0.30;;;11.60;51.70;;;;;;4970953;28;20439;-74
2023/03/12 09:14:12;;;;;;;1.95;0.60;;;11.90;52.10;;;;;;4954089;28;20192;-75
2023/03/12 09:16:38;;;;;;;0.30;0.30;;;12.40;51.30;;;;;;4972056;28;20180;-74
2023/03/12 09:19:04;;;;;;;0.43;0.43;;;12.90;50.90;;;;;;4974706;28;20656;-75
2023/03/12 09:21:30;;;;;;;0.65;0.65;;;13.20;50.90;;;;;;4975245;28;20218;-74
2023/03/12 09:23:56;;;;;;;0.47;0.47;;;13.70;50.80;;;;;;4973894;28;20188;-74
2023/03/12 09:26:22;;;;;;;0.43;0.43;;;14.10;49.60;;;;;;4958798;28;20585;-73
2023/03/12 09:28:49;;;;;;;0.55;0.55;;;14.40;49.10;;;;;;4977626;28;20193;-73
2023/03/12 09:31:14;;;;;;;0.60;0.60;;;14.70;48.40;;;;;;4955169;28;20190;-73
2023/03/12 09:33:40;;;;;;;0.68;0.50;;;14.80;47.40;;;;;;4972147;28;20179;-75
2023/03/12 09:36:06;;;;;;;0.57;0.57;;;14.70;47.90;;;;;;4974148;28;20186;-74
2023/03/12 09:38:34;;;;;;;0.82;0.63;;;14.70;48.00;;;;;;4972644;28;20182;-74
2023/03/12 09:41:02;;;;;;;0.50;0.50;;;15.10;48.40;;;;;;4975282;28;20674;-74
2023/03/12 09:43:41;;;;;;;0.50;0.50;;;15.40;47.00;;;;;;4972703;28;20711;-74
2023/03/12 09:46:18;;;;;;;0.40;0.40;;;15.70;46.70;;;;;;4977104;28;20207;-74
2023/03/12 09:48:44;;;;;;;0.57;0.57;;;16.20;46.70;;;;;;4959635;28;20186;-74
2023/03/12 09:51:22;;;;;;;0.52;0.52;;;16.10;46.00;;;;;;4975375;28;20265;-74
2023/03/12 09:53:53;;;;;;;1.00;0.63;;;15.70;46.50;;;;;;4973488;28;20200;-74
2023/03/12 09:56:21;;;;;;;0.65;0.65;;;15.90;46.00;;;;;;4977606;28;20182;-74
2023/03/12 09:58:48;;;;;;;0.50;0.50;;;16.20;46.80;;;;;;4980250;28;20189;-73
2023/03/12 10:01:38;;;;;;;0.60;0.60;;;16.70;48.00;;;;;;4976950;28;20297;-73
2023/03/12 10:04:16;;;;;;;0.90;0.80;;;17.20;44.60;;;;;;4979143;28;20324;-73
2023/03/12 10:06:56;;;;;;;0.60;0.60;;;17.00;44.60;;;;;;4978541;28;20178;-73
2023/03/12 10:09:40;;;;;;;0.40;0.40;;;17.00;44.60;;;;;;4977394;28;20185;-75
2023/03/12 10:12:31;;;;;;;0.60;0.60;;;17.40;46.80;;;;;;4979331;28;20197;-73
2023/03/12 10:15:24;;;;;;;0.43;0.43;;;18.20;45.00;;;;;;4979748;28;20285;-75
2023/03/12 10:17:56;;;;;;;0.50;0.50;;;19.30;45.00;;;;;;4978046;28;20216;-74
2023/03/12 10:20:49;;;;;;;0.68;0.68;;;20.10;44.10;;;;;;4979704;28;20205;-74
2023/03/12 10:24:14;;;;;;;0.60;0.60;;;20.90;43.80;;;;;;4963532;28;20193;-74
2023/03/12 10:26:42;;;;;;;0.80;0.40;;;21.70;41.40;;;;;;4915300;29;20228;-74
2023/03/12 10:29:37;;;;;;;0.60;0.60;;;22.10;41.60;;;;;;4913991;29;20431;-74
2023/03/12 10:32:06;;;;;;;0.43;0.43;;;22.20;39.60;;;;;;4919446;29;20211;-74
2023/03/12 10:34:40;;;;;;;0.43;0.43;;;21.60;39.40;;;;;;4914628;29;20196;-74
2023/03/12 10:37:28;;;;;;;0.50;0.50;;;21.00;40.60;;;;;;4913679;29;20645;-75
2023/03/12 10:39:55;;;;;;;0.50;0.50;;;20.70;40.70;;;;;;4905868;29;20829;-74
2023/03/12 10:42:23;;;;;;;0.95;0.63;;;20.20;39.80;;;;;;4906841;29;20235;-74
2023/03/12 10:44:57;;;;;;;2.78;0.45;;;19.70;40.60;;;;;;4907109;29;20216;-74
2023/03/12 10:47:39;;;;;;;1.48;0.50;;;19.20;42.20;;;;;;4891743;29;20207;-75
2023/03/12 10:50:18;;;;;;;0.45;0.45;;;19.20;41.20;;;;;;4906298;29;20211;-74
2023/03/12 10:52:46;;;;;;;0.90;0.45;;;19.40;41.10;;;;;;4906264;29;20256;-75
2023/03/12 10:55:23;;;;;;;1.05;0.50;;;19.30;40.30;;;;;;4907163;29;20232;-74
2023/03/12 10:57:50;;;;;;;0.50;0.50;;;19.20;42.30;;;;;;4906931;29;20192;-75
2023/03/12 11:00:27;;;;;;;0.52;0.52;;;19.60;42.60;;;;;;4905725;29;20236;-74
2023/03/12 11:02:58;;;;;;;0.38;0.38;;;20.30;42.10;;;;;;4893054;29;20241;-74
2023/03/12 11:05:30;;;;;;;0.50;0.43;;;21.00;41.80;;;;;;4887847;29;20240;-74
2023/03/12 11:07:59;;;;;;;4.15;0.40;;;21.80;42.20;;;;;;4889773;29;20750;-74
2023/03/12 11:10:42;;;;;;;0.57;0.47;;;22.30;38.90;;;;;;4932522;29;20576;-73
2023/03/12 11:13:25;;;;;;;0.77;0.50;;;22.50;38.70;;;;;;4930704;29;20686;-75
2023/03/12 11:15:51;;;;;;;3.42;0.45;;;22.80;40.00;;;;;;4935181;28;20635;-75
2023/03/12 11:18:36;;;;;;;0.35;0.35;;;23.30;39.40;;;;;;4975400;28;20193;-74
2023/03/12 11:21:07;;;;;;;0.55;0.55;;;23.70;40.10;;;;;;4975295;28;20690;-74
2023/03/12 11:23:34;;;;;;;0.45;0.45;;;24.20;39.10;;;;;;4977101;28;20190;-75
2023/03/12 11:26:03;;;;;;;0.50;0.50;;;24.30;37.70;;;;;;4979539;28;20198;-74
2023/03/12 11:28:40;;;;;;;0.60;0.60;;;23.80;36.20;;;;;;4979713;28;20201;-74
2023/03/12 11:31:12;;;;;;;0.57;0.47;;;23.10;36.70;;;;;;4974523;28;20586;-74
2023/03/12 11:33:38;;;;;;;0.52;0.52;;;21.60;36.80;;;;;;4979178;28;20185;-74
2023/03/12 11:36:20;;;;;;;0.47;0.47;;;20.40;38.80;;;;;;4977974;28;20788;-74
2023/03/12 11:38:55;;;;;;;0.43;0.43;;;20.00;39.60;;;;;;4976359;28;20186;-74
2023/03/12 11:41:53;;;;;;;0.50;0.50;;;19.70;39.20;;;;;;4977965;28;20223;-80
2023/03/12 11:44:27;;;;;;;0.47;0.47;;;19.40;39.90;;;;;;4897119;29;20204;-82
2023/03/12 11:47:26;;;;;;;0.50;0.50;;;19.20;40.40;;;;;;4901500;29;20195;-81
2023/03/12 11:50:12;;;;;;;0.30;0.30;;;18.70;41.10;;;;;;4899863;29;20294;-80
2023/03/12 11:52:56;;;;;;;0.35;0.35;;;18.10;42.10;;;;;;4883103;29;20189;-78
2023/03/12 11:55:40;;;;;;;0.55;0.55;;;17.60;41.90;;;;;;4885138;29;20212;-81
2023/03/12 11:58:30;;;;;;;0.40;0.40;;;17.80;43.40;;;;;;4886409;29;20750;-78
2023/03/12 12:01:02;;;;;;;0.35;0.35;;;18.50;43.00;;;;;;4885991;29;20272;-79
2023/03/12 12:03:46;;;;;;;0.50;0.50;;;19.40;42.20;;;;;;4871059;29;22014;-79
2023/03/12 12:06:30;;;;;;;0.55;0.55;;;19.90;40.20;;;;;;4888256;29;20742;-77
2023/03/12 12:09:23;;;;;;;1.08;0.40;;;20.30;40.30;;;;;;4883429;29;20329;-79
2023/03/12 12:11:55;;;;;;;0.50;0.50;;;20.60;40.20;;;;;;4884532;29;20326;-75
2023/03/12 12:14:30;;;;;;;0.40;0.40;;;20.70;41.00;;;;;;4883740;29;20212;-77
2023/03/12 12:17:26;;;;;;;0.50;0.50;;;20.70;39.70;;;;;;4884941;29;20201;-80
2023/03/12 12:20:27;;;;;;;0.55;0.55;;;20.20;40.30;;;;;;4902996;29;20777;-77
2023/03/12 12:23:16;;;;;;;0.47;0.47;;;19.50;40.60;;;;;;4873947;29;20211;-79
2023/03/12 12:26:11;;;;;;;0.47;0.47;;;18.70;41.60;;;;;;4869054;29;20296;-78
2023/03/12 12:28:57;;;;;;;0.40;0.40;;;18.50;41.80;;;;;;4871424;29;20197;-80
2023/03/12 12:31:50;;;;;;;0.60;0.60;;;18.70;41.40;;;;;;4856904;29;20293;-77
2023/03/12 12:34:34;;;;;;;0.60;0.60;;;18.70;41.50;;;;;;4857670;29;20316;-77
2023/03/12 12:37:21;;;;;;;0.55;0.50;;;18.80;41.70;;;;;;4857919;29;20205;-75
2023/03/12 12:40:09;;;;;;;1.27;0.80;;;18.20;41.30;;;;;;4847637;29;20259;-76
2023/03/12 12:42:46;;;;;;;0.40;0.40;;;17.90;43.00;;;;;;4839861;29;20224;-75
2023/03/12 12:45:14;;;;;;;0.40;0.40;;;17.50;41.70;;;;;;4839336;29;20214;-78
2023/03/12 12:47:49;;;;;;;0.60;0.60;;;17.00;42.70;;;;;;4861236;29;20215;-76
2023/03/12 12:50:19;;;;;;;0.50;0.50;;;16.50;42.80;;;;;;4863589;29;21146;-76
2023/03/12 12:52:54;;;;;;;0.40;0.40;;;15.10;44.00;;;;;;4859431;29;20209;-76
2023/03/12 12:55:31;;;;;;;1.83;0.73;;;14.40;45.70;;;;;;4857502;29;20579;-77
2023/03/12 12:58:06;;;;;;;0.63;0.60;;;14.10;46.40;;;;;;4863392;29;20243;-76
2023/03/12 13:00:52;;;;;;;0.40;0.40;;;13.90;46.30;;;;;;4877758;29;20233;-76
2023/03/12 13:03:20;;;;;;;0.38;0.38;;;14.10;46.60;;;;;;4886344;29;20208;-76
2023/03/12 13:06:07;;;;;;;0.50;0.50;;;14.50;46.00;;;;;;4890554;29;20189;-78
2023/03/12 13:08:34;;;;;;;0.57;0.57;;;15.10;45.90;;;;;;4933232;28;20248;-78